createdAt,value
2019-02-03T00:00:01.148Z,920.3
2019-02-03T00:01:01.653Z,920.3
2019-02-03T00:02:01.695Z,920.4
2019-02-03T00:03:01.628Z,920.4
2019-02-03T00:04:01.592Z,919.1
2019-02-03T00:05:01.524Z,920.5
2019-02-03T00:06:01.461Z,920.4
2019-02-03T00:07:04.465Z,920.2
2019-02-03T00:08:04.398Z,920.4
2019-02-03T00:09:04.482Z,920.4
2019-02-03T00:10:04.422Z,920.5
2019-02-03T00:11:06.189Z,920.4
2019-02-03T00:12:06.405Z,920.4
2019-02-03T00:13:06.328Z,920.3
2019-02-03T00:14:06.323Z,920.2
2019-02-03T00:15:06.476Z,920.2
2019-02-03T00:16:06.447Z,920.3
2019-02-03T00:17:06.540Z,920.2
2019-02-03T00:18:06.471Z,920.2
2019-02-03T00:19:06.400Z,920.1
2019-02-03T00:20:06.375Z,920.4
2019-02-03T00:21:06.779Z,920.4
2019-02-03T00:22:06.723Z,920
2019-02-03T00:23:06.661Z,920.5
2019-02-03T00:24:06.587Z,920.5
2019-02-03T00:25:06.514Z,920.5
2019-02-03T00:26:06.519Z,920.5
2019-02-03T00:27:06.273Z,920.5
2019-02-03T00:28:06.462Z,920.5
2019-02-03T00:29:06.558Z,920.5
2019-02-03T00:30:06.510Z,920.7
2019-02-03T00:31:06.994Z,920.7
2019-02-03T00:32:06.942Z,920.6
2019-02-03T00:33:06.878Z,920.6
2019-02-03T00:34:06.821Z,920.5
2019-02-03T00:35:06.767Z,920.5
2019-02-03T00:36:08.288Z,920.5
2019-02-03T00:37:19.211Z,920.4
2019-02-03T00:38:27.120Z,920.5
2019-02-03T00:39:27.420Z,920.5
2019-02-03T00:40:27.665Z,920.4
2019-02-03T00:41:28.660Z,920.4
2019-02-03T00:42:28.607Z,920.4
2019-02-03T00:43:28.552Z,920.4
2019-02-03T00:44:28.479Z,920.2
2019-02-03T00:45:28.423Z,920.4
2019-02-03T00:46:28.588Z,920.4
2019-02-03T00:47:30.838Z,920.4
2019-02-03T00:48:31.024Z,920.5
2019-02-03T00:49:30.981Z,920.6
2019-02-03T00:50:30.904Z,920.6
2019-02-03T00:51:31.357Z,920.6
2019-02-03T00:52:31.278Z,920.6
2019-02-03T00:53:31.452Z,920.7
2019-02-03T00:54:31.364Z,920.6
2019-02-03T00:55:31.644Z,920.6
2019-02-03T00:56:31.548Z,920.6
2019-02-03T00:57:33.369Z,920.5
2019-02-03T00:58:33.285Z,920.5
2019-02-03T00:59:33.221Z,920.7
2019-02-03T01:00:33.158Z,920.8
2019-02-03T01:01:33.542Z,920.7
2019-02-03T01:02:33.506Z,920.6
2019-02-03T01:03:33.439Z,920.9
2019-02-03T01:04:34.310Z,920.9
2019-02-03T01:05:34.574Z,920.8
2019-02-03T01:06:34.496Z,920.9
2019-02-03T01:07:34.248Z,921
2019-02-03T01:08:34.246Z,920.9
2019-02-03T01:09:34.851Z,920.9
2019-02-03T01:10:34.723Z,920.8
2019-02-03T01:11:35.121Z,920.8
2019-02-03T01:12:36.342Z,920.6
2019-02-03T01:13:36.339Z,920.5
2019-02-03T01:14:36.269Z,920.7
2019-02-03T01:15:36.222Z,920.7
2019-02-03T01:16:37.203Z,920.8
2019-02-03T01:17:37.121Z,920.9
2019-02-03T01:18:37.051Z,920.9
2019-02-03T01:19:37.108Z,920.9
2019-02-03T01:20:37.536Z,920.9
2019-02-03T01:21:37.943Z,920.8
2019-02-03T01:22:37.870Z,921
2019-02-03T01:23:40.437Z,921
2019-02-03T01:24:40.431Z,920.8
2019-02-03T01:25:40.366Z,920.9
2019-02-03T01:26:40.286Z,920.9
2019-02-03T01:27:40.208Z,920.9
2019-02-03T01:28:40.171Z,920.9
2019-02-03T01:29:41.570Z,920.8
2019-02-03T01:30:41.825Z,920.9
2019-02-03T01:31:42.212Z,920.9
2019-02-03T01:32:42.130Z,921
2019-02-03T01:33:42.074Z,921
2019-02-03T01:34:42.034Z,921
2019-02-03T01:35:41.952Z,921
2019-02-03T01:36:41.867Z,921
2019-02-03T01:37:43.994Z,921
2019-02-03T01:38:44.238Z,921
2019-02-03T01:39:44.174Z,921.1
2019-02-03T01:40:44.089Z,921
2019-02-03T01:41:44.518Z,920.8
2019-02-03T01:42:44.467Z,921
2019-02-03T01:43:44.404Z,921.1
2019-02-03T01:44:44.473Z,921
2019-02-03T01:45:44.415Z,921
2019-02-03T01:46:44.398Z,921.1
2019-02-03T01:47:44.156Z,921.1
2019-02-03T01:48:46.761Z,921.1
2019-02-03T01:49:46.765Z,921.2
2019-02-03T01:50:46.683Z,921.1
2019-02-03T01:51:47.040Z,920.9
2019-02-03T01:52:46.954Z,921.1
2019-02-03T01:53:46.872Z,921.1
2019-02-03T01:54:48.227Z,921.1
2019-02-03T01:55:48.578Z,921.2
2019-02-03T01:56:48.522Z,920
2019-02-03T01:57:48.473Z,921.2
2019-02-03T01:58:48.534Z,921.3
2019-02-03T01:59:48.490Z,921.3
2019-02-03T02:00:48.423Z,921.3
2019-02-03T02:01:48.826Z,921.2
2019-02-03T02:02:49.472Z,921
2019-02-03T02:03:49.399Z,921.2
2019-02-03T02:04:49.381Z,921.1
2019-02-03T02:05:49.319Z,921.1
2019-02-03T02:06:49.255Z,921.1
2019-02-03T02:07:52.980Z,921.1
2019-02-03T02:08:55.835Z,921.2
2019-02-03T02:09:55.774Z,921.1
2019-02-03T02:10:55.694Z,921.3
2019-02-03T02:11:57.267Z,921.2
2019-02-03T02:12:57.424Z,921.1
2019-02-03T02:13:57.356Z,921.2
2019-02-03T02:14:57.310Z,921.1
2019-02-03T02:15:57.248Z,921
2019-02-03T02:16:57.185Z,921.2
2019-02-03T02:17:57.363Z,921
2019-02-03T02:18:57.392Z,921.2
2019-02-03T02:19:57.905Z,921.2
2019-02-03T02:20:57.846Z,921.2
2019-02-03T02:21:58.238Z,921.2
2019-02-03T02:22:58.164Z,921.2
2019-02-03T02:23:58.086Z,921.2
2019-02-03T02:24:57.994Z,921.3
2019-02-03T02:25:58.023Z,921.1
2019-02-03T02:26:57.949Z,921.2
2019-02-03T02:27:57.913Z,921.2
2019-02-03T02:28:57.850Z,920.2
2019-02-03T02:29:57.779Z,921.3
2019-02-03T02:30:57.769Z,920.5
2019-02-03T02:31:58.232Z,921.2
2019-02-03T02:32:58.179Z,921
2019-02-03T02:33:58.107Z,921.1
2019-02-03T02:34:58.072Z,921.1
2019-02-03T02:35:58.263Z,921.1
2019-02-03T02:36:58.190Z,921.1
2019-02-03T02:38:08.753Z,921.2
2019-02-03T02:39:09.232Z,921.3
2019-02-03T02:40:14.368Z,921.3
2019-02-03T02:41:14.331Z,921.3
2019-02-03T02:42:14.768Z,921.4
2019-02-03T02:43:14.817Z,921.5
2019-02-03T02:44:14.753Z,921.4
2019-02-03T02:45:15.078Z,921.5
2019-02-03T02:46:15.120Z,921.5
2019-02-03T02:47:15.276Z,921.3
2019-02-03T02:48:15.208Z,921.5
2019-02-03T02:49:15.142Z,921.4
2019-02-03T02:50:15.066Z,921.4
2019-02-03T02:51:15.008Z,921.3
2019-02-03T02:52:16.225Z,921.3
2019-02-03T02:53:16.178Z,921.4
2019-02-03T02:54:16.110Z,921.5
2019-02-03T02:55:16.062Z,921.5
2019-02-03T02:56:15.992Z,921.5
2019-02-03T02:57:15.954Z,921.6
2019-02-03T02:58:15.866Z,921.5
2019-02-03T02:59:15.798Z,921.5
2019-02-03T03:00:18.580Z,921.6
2019-02-03T03:01:18.527Z,921.6
2019-02-03T03:02:18.933Z,921.5
2019-02-03T03:03:20.380Z,921.4
2019-02-03T03:04:20.437Z,921.6
2019-02-03T03:05:20.357Z,921.5
2019-02-03T03:06:20.312Z,921.4
2019-02-03T03:07:20.255Z,921.5
2019-02-03T03:08:20.795Z,921.5
2019-02-03T03:09:20.779Z,921.5
2019-02-03T03:10:20.910Z,921.5
2019-02-03T03:11:21.151Z,921.5
2019-02-03T03:12:21.536Z,921.6
2019-02-03T03:13:21.458Z,921.5
2019-02-03T03:14:21.394Z,921.4
2019-02-03T03:15:21.324Z,921.5
2019-02-03T03:16:21.238Z,921.5
2019-02-03T03:17:21.480Z,921.5
2019-02-03T03:18:21.412Z,921.4
2019-02-03T03:19:21.326Z,921.4
2019-02-03T03:20:21.278Z,921.6
2019-02-03T03:21:21.190Z,921.7
2019-02-03T03:22:21.700Z,921.6
2019-02-03T03:23:21.667Z,921.6
2019-02-03T03:24:21.606Z,921.6
2019-02-03T03:25:21.572Z,921
2019-02-03T03:26:21.502Z,921.7
2019-02-03T03:27:21.492Z,921.6
2019-02-03T03:28:21.672Z,921.7
2019-02-03T03:29:21.999Z,921.7
2019-02-03T03:30:22.113Z,921.6
2019-02-03T03:31:22.100Z,921.8
2019-02-03T03:32:23.268Z,921.6
2019-02-03T03:33:23.275Z,921.7
2019-02-03T03:34:23.216Z,921.7
2019-02-03T03:35:23.126Z,921.8
2019-02-03T03:36:24.659Z,921.8
2019-02-03T03:37:24.882Z,921.7
2019-02-03T03:38:33.378Z,921.7
2019-02-03T03:39:33.310Z,921.7
2019-02-03T03:40:33.264Z,921.8
2019-02-03T03:41:33.182Z,921.7
2019-02-03T03:42:34.825Z,921.7
2019-02-03T03:43:34.930Z,921.8
2019-02-03T03:44:34.862Z,921.8
2019-02-03T03:45:35.224Z,921.7
2019-02-03T03:46:35.170Z,921.7
2019-02-03T03:47:34.924Z,921.6
2019-02-03T03:48:34.706Z,921.7
2019-02-03T03:49:34.499Z,921.8
2019-02-03T03:50:34.259Z,921.7
2019-02-03T03:51:34.143Z,921.7
2019-02-03T03:52:34.532Z,921.7
2019-02-03T03:53:34.494Z,921.7
2019-02-03T03:54:34.413Z,921.7
2019-02-03T03:55:34.354Z,921.5
2019-02-03T03:56:34.279Z,921.7
2019-02-03T03:57:34.197Z,921.7
2019-02-03T03:58:34.132Z,921.7
2019-02-03T03:59:34.052Z,921.7
2019-02-03T04:00:34.011Z,921.8
2019-02-03T04:01:33.962Z,921.8
2019-02-03T04:02:34.389Z,921.9
2019-02-03T04:03:34.687Z,921.9
2019-02-03T04:04:34.614Z,922
2019-02-03T04:05:34.529Z,921.9
2019-02-03T04:06:34.464Z,922
2019-02-03T04:07:34.403Z,921.9
2019-02-03T04:08:46.499Z,921.9
2019-02-03T04:09:46.482Z,921.9
2019-02-03T04:10:46.408Z,921.9
2019-02-03T04:11:47.778Z,921.8
2019-02-03T04:12:48.655Z,922
2019-02-03T04:13:48.623Z,921.3
2019-02-03T04:14:48.551Z,922.1
2019-02-03T04:15:48.476Z,922.1
2019-02-03T04:16:48.417Z,922.2
2019-02-03T04:17:48.441Z,920.6
2019-02-03T04:18:48.379Z,922.2
2019-02-03T04:19:49.282Z,922.2
2019-02-03T04:20:49.261Z,922.1
2019-02-03T04:21:49.193Z,922.2
2019-02-03T04:22:49.645Z,922.2
2019-02-03T04:23:49.719Z,922.2
2019-02-03T04:24:49.693Z,922.1
2019-02-03T04:25:49.642Z,922.2
2019-02-03T04:26:49.603Z,922.3
2019-02-03T04:27:50.011Z,922.2
2019-02-03T04:28:49.926Z,922.3
2019-02-03T04:29:49.841Z,922.2
2019-02-03T04:30:49.994Z,922.4
2019-02-03T04:31:49.937Z,922.4
2019-02-03T04:32:51.745Z,922.4
2019-02-03T04:33:51.705Z,922.3
2019-02-03T04:34:51.623Z,922.5
2019-02-03T04:35:51.737Z,922.5
2019-02-03T04:36:53.340Z,922.5
2019-02-03T04:37:53.621Z,922.5
2019-02-03T04:38:59.475Z,922.5
2019-02-03T04:39:59.403Z,922.5
2019-02-03T04:40:59.359Z,922.5
2019-02-03T04:41:59.277Z,922.6
2019-02-03T04:42:59.666Z,922.5
2019-02-03T04:43:59.622Z,922.6
2019-02-03T04:44:59.606Z,922.6
2019-02-03T04:46:00.794Z,922.5
2019-02-03T04:47:01.080Z,922.6
2019-02-03T04:48:01.023Z,922.5
2019-02-03T04:49:01.049Z,922.7
2019-02-03T04:50:01.193Z,922.6
2019-02-03T04:51:01.149Z,922.7
2019-02-03T04:52:01.080Z,922.7
2019-02-03T04:53:01.495Z,922.7
2019-02-03T04:54:02.673Z,922.7
2019-02-03T04:55:02.829Z,922.7
2019-02-03T04:56:02.798Z,922.7
2019-02-03T04:57:02.847Z,922.8
2019-02-03T04:58:02.792Z,922.8
2019-02-03T04:59:02.728Z,922.7
2019-02-03T05:00:02.676Z,922.8
2019-02-03T05:01:02.602Z,922.8
2019-02-03T05:02:03.818Z,922.8
2019-02-03T05:03:04.717Z,921.2
2019-02-03T05:04:04.651Z,922.7
2019-02-03T05:05:04.581Z,922.8
2019-02-03T05:06:04.507Z,922.7
2019-02-03T05:07:04.463Z,922.8
2019-02-03T05:08:04.381Z,922.9
2019-02-03T05:09:12.295Z,922.9
2019-02-03T05:10:12.522Z,922.9
2019-02-03T05:11:12.478Z,922.8
2019-02-03T05:12:12.450Z,922.8
2019-02-03T05:13:12.993Z,922.9
2019-02-03T05:14:12.937Z,922.9
2019-02-03T05:15:12.882Z,922.8
2019-02-03T05:16:12.823Z,923
2019-02-03T05:17:12.756Z,923
2019-02-03T05:18:12.688Z,923
2019-02-03T05:19:12.680Z,923.1
2019-02-03T05:20:12.793Z,923
2019-02-03T05:21:12.748Z,923.1
2019-02-03T05:22:12.741Z,923.2
2019-02-03T05:23:13.165Z,923.1
2019-02-03T05:24:13.170Z,923.1
2019-02-03T05:25:13.176Z,923.2
2019-02-03T05:26:13.107Z,923.1
2019-02-03T05:27:12.879Z,923.2
2019-02-03T05:28:12.664Z,923
2019-02-03T05:29:12.617Z,923.2
2019-02-03T05:30:12.367Z,923
2019-02-03T05:31:12.138Z,923.2
2019-02-03T05:32:11.922Z,923.2
2019-02-03T05:33:12.296Z,923.2
2019-02-03T05:34:12.225Z,923.2
2019-02-03T05:35:12.511Z,923.2
2019-02-03T05:36:12.454Z,923.2
2019-02-03T05:37:12.489Z,923.2
2019-02-03T05:38:12.425Z,923.2
2019-02-03T05:39:26.368Z,923.2
2019-02-03T05:40:26.342Z,923.3
2019-02-03T05:41:26.281Z,923.3
2019-02-03T05:42:26.366Z,923.1
2019-02-03T05:43:26.899Z,923.2
2019-02-03T05:44:26.826Z,923.3
2019-02-03T05:45:27.910Z,923.3
2019-02-03T05:46:27.837Z,921.9
2019-02-03T05:47:27.781Z,923.3
2019-02-03T05:48:27.554Z,923.2
2019-02-03T05:49:27.477Z,923.3
2019-02-03T05:50:27.229Z,923.2
2019-02-03T05:51:27.165Z,923.2
2019-02-03T05:52:26.922Z,923.3
2019-02-03T05:53:27.614Z,923.3
2019-02-03T05:54:27.539Z,923.3
2019-02-03T05:55:27.471Z,923.2
2019-02-03T05:56:27.406Z,923.3
2019-02-03T05:57:27.325Z,923.4
2019-02-03T05:58:27.286Z,923.4
2019-02-03T05:59:27.216Z,922.9
2019-02-03T06:00:27.153Z,923.5
2019-02-03T06:01:27.181Z,923.4
2019-02-03T06:02:27.152Z,923.5
2019-02-03T06:03:27.721Z,923.5
2019-02-03T06:04:27.654Z,922.8
2019-02-03T06:05:27.603Z,923.5
2019-02-03T06:06:27.524Z,923.5
2019-02-03T06:07:27.444Z,923.4
2019-02-03T06:08:27.394Z,923.5
2019-02-03T06:09:37.822Z,923.5
2019-02-03T06:10:37.762Z,923.5
2019-02-03T06:11:39.176Z,923.5
2019-02-03T06:12:39.452Z,923.5
2019-02-03T06:13:39.922Z,923.6
2019-02-03T06:14:39.876Z,923.5
2019-02-03T06:15:39.796Z,923.5
2019-02-03T06:16:39.761Z,923.6
2019-02-03T06:17:39.707Z,923.4
2019-02-03T06:18:39.641Z,923.7
2019-02-03T06:19:41.036Z,923.7
2019-02-03T06:20:41.246Z,923.6
2019-02-03T06:21:41.150Z,923.6
2019-02-03T06:22:41.072Z,923.5
2019-02-03T06:23:41.623Z,923.6
2019-02-03T06:24:41.550Z,923.7
2019-02-03T06:25:41.503Z,923.5
2019-02-03T06:26:41.440Z,923.6
2019-02-03T06:27:42.198Z,923.7
2019-02-03T06:28:42.152Z,923.7
2019-02-03T06:29:42.192Z,923.8
2019-02-03T06:30:42.128Z,923.7
2019-02-03T06:31:42.030Z,923.9
2019-02-03T06:32:41.949Z,923.9
2019-02-03T06:33:42.524Z,923.9
2019-02-03T06:34:42.474Z,923.7
2019-02-03T06:35:42.390Z,923.7
2019-02-03T06:36:42.409Z,923.9
2019-02-03T06:37:42.448Z,923.9
2019-02-03T06:38:42.394Z,923.9
2019-02-03T06:39:49.779Z,924
2019-02-03T06:40:49.718Z,924
2019-02-03T06:41:49.659Z,924
2019-02-03T06:42:49.575Z,924
2019-02-03T06:43:50.008Z,924
2019-02-03T06:44:49.981Z,924
2019-02-03T06:45:51.252Z,923.9
2019-02-03T06:46:51.542Z,924.1
2019-02-03T06:47:51.478Z,923.9
2019-02-03T06:48:51.569Z,924.1
2019-02-03T06:49:51.492Z,924
2019-02-03T06:50:51.406Z,924.2
2019-02-03T06:51:51.330Z,924.1
2019-02-03T06:52:51.267Z,924.3
2019-02-03T06:53:53.049Z,924
2019-02-03T06:54:53.238Z,924.3
2019-02-03T06:55:53.166Z,924.1
2019-02-03T06:56:52.950Z,924.2
2019-02-03T06:57:52.876Z,924.1
2019-02-03T06:58:52.663Z,924.3
2019-02-03T06:59:52.613Z,924.3
2019-02-03T07:00:52.374Z,924.3
2019-02-03T07:01:53.664Z,924.3
2019-02-03T07:02:53.699Z,924.4
2019-02-03T07:03:54.142Z,924.3
2019-02-03T07:04:53.936Z,924.5
2019-02-03T07:05:53.882Z,924.4
2019-02-03T07:06:53.877Z,923.7
2019-02-03T07:07:53.628Z,924.5
2019-02-03T07:08:53.527Z,924.5
2019-02-03T07:10:01.902Z,924.6
2019-02-03T07:11:02.926Z,924.6
2019-02-03T07:12:03.090Z,924.6
2019-02-03T07:13:03.054Z,924.6
2019-02-03T07:14:03.436Z,924.6
2019-02-03T07:15:03.390Z,924.7
2019-02-03T07:16:03.300Z,924.7
2019-02-03T07:17:03.250Z,924.6
2019-02-03T07:18:03.174Z,924.7
2019-02-03T07:19:04.291Z,923.3
2019-02-03T07:20:04.261Z,924.8
2019-02-03T07:21:04.206Z,924.8
2019-02-03T07:22:04.128Z,924.9
2019-02-03T07:23:04.074Z,924.9
2019-02-03T07:24:05.546Z,924.7
2019-02-03T07:25:05.488Z,924.9
2019-02-03T07:26:05.395Z,924.9
2019-02-03T07:27:05.322Z,925
2019-02-03T07:28:05.816Z,924.9
2019-02-03T07:29:06.157Z,925
2019-02-03T07:30:06.120Z,924.9
2019-02-03T07:31:06.060Z,925.1
2019-02-03T07:32:05.971Z,925.1
2019-02-03T07:33:05.932Z,925.1
2019-02-03T07:34:06.371Z,925.1
2019-02-03T07:35:06.289Z,925.1
2019-02-03T07:36:08.663Z,925.2
2019-02-03T07:37:08.807Z,925
2019-02-03T07:38:11.581Z,925
2019-02-03T07:39:11.528Z,925.3
2019-02-03T07:40:13.685Z,925.2
2019-02-03T07:41:13.642Z,925.1
2019-02-03T07:42:13.578Z,925.3
2019-02-03T07:43:13.512Z,925.3
2019-02-03T07:44:13.906Z,925.3
2019-02-03T07:45:15.574Z,925.4
2019-02-03T07:46:15.907Z,925.4
2019-02-03T07:47:15.924Z,923.9
2019-02-03T07:48:15.907Z,925.3
2019-02-03T07:49:15.667Z,925.3
2019-02-03T07:50:15.436Z,925.4
2019-02-03T07:51:15.407Z,925.4
2019-02-03T07:52:15.346Z,925.3
2019-02-03T07:53:16.174Z,925.3
2019-02-03T07:54:17.234Z,924.8
2019-02-03T07:55:17.191Z,925.5
2019-02-03T07:56:17.153Z,925.5
2019-02-03T07:57:18.283Z,924.9
2019-02-03T07:58:18.205Z,925.6
2019-02-03T07:59:18.359Z,925.6
2019-02-03T08:00:18.275Z,925.4
2019-02-03T08:01:19.127Z,925.7
2019-02-03T08:02:19.390Z,925.6
2019-02-03T08:03:19.315Z,925.6
2019-02-03T08:04:19.729Z,925.7
2019-02-03T08:05:19.674Z,925.6
2019-02-03T08:06:19.737Z,925.7
2019-02-03T08:07:19.764Z,925.6
2019-02-03T08:08:19.691Z,925.8
2019-02-03T08:09:20.737Z,925.7
2019-02-03T08:10:30.474Z,925.8
2019-02-03T08:11:30.425Z,925.9
2019-02-03T08:12:30.374Z,925.9
2019-02-03T08:13:30.305Z,925.8
2019-02-03T08:14:30.713Z,925.8
2019-02-03T08:15:30.709Z,926
2019-02-03T08:16:30.618Z,925.8
2019-02-03T08:17:30.565Z,925.9
2019-02-03T08:18:30.489Z,924.4
2019-02-03T08:19:30.415Z,926
2019-02-03T08:20:30.393Z,925.8
2019-02-03T08:21:30.344Z,926
2019-02-03T08:22:30.302Z,925.9
2019-02-03T08:23:30.241Z,926
2019-02-03T08:24:30.652Z,926.1
2019-02-03T08:25:30.590Z,926.1
2019-02-03T08:26:30.688Z,926
2019-02-03T08:27:30.615Z,926.2
2019-02-03T08:28:30.529Z,926.2
2019-02-03T08:29:30.461Z,926.2
2019-02-03T08:30:30.486Z,926.2
2019-02-03T08:31:30.434Z,926.2
2019-02-03T08:32:30.457Z,926.3
2019-02-03T08:33:30.376Z,926.1
2019-02-03T08:34:31.349Z,926.2
2019-02-03T08:35:31.275Z,926.3
2019-02-03T08:36:31.225Z,926.4
2019-02-03T08:37:31.185Z,926.4
2019-02-03T08:38:31.159Z,926.4
2019-02-03T08:39:31.133Z,926.2
2019-02-03T08:40:38.273Z,926.4
2019-02-03T08:41:38.216Z,926.4
2019-02-03T08:42:38.000Z,926.5
2019-02-03T08:43:38.547Z,926.5
2019-02-03T08:44:39.374Z,925.3
2019-02-03T08:45:39.337Z,926.5
2019-02-03T08:46:39.269Z,926.5
2019-02-03T08:47:39.215Z,926.6
2019-02-03T08:48:39.135Z,926.6
2019-02-03T08:49:42.355Z,926.4
2019-02-03T08:50:42.289Z,926.6
2019-02-03T08:51:42.416Z,926.7
2019-02-03T08:52:43.186Z,926.7
2019-02-03T08:53:43.559Z,926.8
2019-02-03T08:55:00.214Z,926.8
2019-02-03T08:56:00.463Z,926.8
2019-02-03T08:57:00.387Z,926.8
2019-02-03T08:58:00.348Z,926.8
2019-02-03T08:59:00.427Z,926.8
2019-02-03T09:00:00.641Z,926.8
2019-02-03T09:01:00.571Z,926.6
2019-02-03T09:02:00.498Z,926.9
2019-02-03T09:03:02.203Z,926.7
2019-02-03T09:04:02.461Z,927
2019-02-03T09:05:02.855Z,927
2019-02-03T09:06:02.807Z,927
2019-02-03T09:07:02.791Z,927
2019-02-03T09:08:02.717Z,927
2019-02-03T09:09:02.667Z,926.9
2019-02-03T09:10:02.572Z,926.9
2019-02-03T09:11:03.739Z,927
2019-02-03T09:12:03.769Z,927.1
2019-02-03T09:13:03.945Z,927.1
2019-02-03T09:14:03.922Z,927
2019-02-03T09:15:04.335Z,927
2019-02-03T09:16:04.287Z,927.2
2019-02-03T09:17:04.225Z,927.1
2019-02-03T09:18:04.147Z,927.2
2019-02-03T09:19:04.426Z,927.2
2019-02-03T09:20:04.362Z,927.1
2019-02-03T09:21:04.307Z,927.2
2019-02-03T09:22:04.249Z,927.3
2019-02-03T09:23:04.191Z,927.1
2019-02-03T09:24:04.151Z,927.2
2019-02-03T09:25:04.535Z,927.3
2019-02-03T09:26:04.470Z,927.3
2019-02-03T09:27:05.080Z,927.3
2019-02-03T09:28:05.035Z,927.3
2019-02-03T09:29:05.056Z,927.4
2019-02-03T09:30:04.990Z,927.4
2019-02-03T09:31:04.979Z,927.4
2019-02-03T09:32:04.917Z,927.5
2019-02-03T09:33:04.888Z,927.2
2019-02-03T09:34:05.149Z,927.5
2019-02-03T09:35:05.802Z,927.3
2019-02-03T09:36:05.759Z,927.6
2019-02-03T09:37:05.783Z,927.5
2019-02-03T09:38:05.866Z,927.6
2019-02-03T09:39:05.787Z,927.6
2019-02-03T09:40:05.790Z,927.6
2019-02-03T09:41:05.736Z,927.6
2019-02-03T09:42:08.703Z,927.6
2019-02-03T09:43:08.687Z,927.6
2019-02-03T09:44:10.242Z,927.6
2019-02-03T09:45:11.261Z,927.6
2019-02-03T09:46:11.471Z,927.7
2019-02-03T09:47:11.417Z,927.6
2019-02-03T09:48:11.357Z,927.7
2019-02-03T09:49:11.421Z,927.7
2019-02-03T09:50:11.366Z,927.8
2019-02-03T09:51:11.340Z,927.7
2019-02-03T09:52:12.619Z,927.8
2019-02-03T09:53:12.803Z,927.8
2019-02-03T09:54:12.753Z,927.8
2019-02-03T09:55:13.170Z,927.9
2019-02-03T09:56:13.298Z,927.9
2019-02-03T09:57:13.441Z,927.3
2019-02-03T09:58:13.743Z,927.8
2019-02-03T09:59:13.822Z,928
2019-02-03T10:00:15.085Z,928
2019-02-03T10:01:15.397Z,928.2
2019-02-03T10:02:15.466Z,928
2019-02-03T10:03:15.349Z,928.2
2019-02-03T10:04:15.203Z,928.2
2019-02-03T10:05:17.193Z,928.1
2019-02-03T10:06:17.413Z,928.2
2019-02-03T10:07:17.565Z,928.2
2019-02-03T10:08:20.737Z,928.1
2019-02-03T10:09:22.205Z,928.2
2019-02-03T10:10:22.576Z,928.2
2019-02-03T10:11:24.089Z,928.1
2019-02-03T10:12:24.203Z,928
2019-02-03T10:13:24.481Z,928.2
2019-02-03T10:14:24.629Z,928.1
2019-02-03T10:15:25.318Z,928.1
2019-02-03T10:16:25.587Z,928.2
2019-02-03T10:17:25.943Z,928.4
2019-02-03T10:18:27.311Z,928.2
2019-02-03T10:19:27.709Z,928.3
2019-02-03T10:20:27.801Z,928.3
2019-02-03T10:21:28.083Z,928.2
2019-02-03T10:22:28.146Z,928.3
2019-02-03T10:23:28.331Z,928.3
2019-02-03T10:24:28.437Z,928.3
2019-02-03T10:25:29.160Z,928.3
2019-02-03T10:26:30.593Z,928.4
2019-02-03T10:27:30.832Z,928.3
2019-02-03T10:28:31.269Z,928.4
2019-02-03T10:29:31.368Z,928.4
2019-02-03T10:30:31.507Z,928.5
2019-02-03T10:31:31.650Z,928.4
2019-02-03T10:32:31.799Z,928.3
2019-02-03T10:33:31.681Z,928.5
2019-02-03T10:34:31.860Z,928.2
2019-02-03T10:35:32.659Z,928.5
2019-02-03T10:36:32.909Z,928.5
2019-02-03T10:37:32.865Z,928.4
2019-02-03T10:38:32.808Z,928.3
2019-02-03T10:39:34.038Z,928.4
2019-02-03T10:40:34.002Z,928.5
2019-02-03T10:41:33.954Z,928.5
2019-02-03T10:42:34.167Z,928.4
2019-02-03T10:43:35.766Z,928.4
2019-02-03T10:44:36.081Z,927.1
2019-02-03T10:45:36.499Z,928.5
2019-02-03T10:46:36.490Z,928.3
2019-02-03T10:47:36.666Z,928.6
2019-02-03T10:48:36.604Z,928.5
2019-02-03T10:49:36.546Z,928.6
2019-02-03T10:50:37.158Z,928.5
2019-02-03T10:51:37.127Z,928.5
2019-02-03T10:52:37.335Z,928.6
2019-02-03T10:53:37.288Z,928.7
2019-02-03T10:54:37.270Z,928.6
2019-02-03T10:55:39.829Z,928.5
2019-02-03T10:56:39.843Z,928.6
2019-02-03T10:57:39.822Z,928.7
2019-02-03T10:58:39.816Z,928.7
2019-02-03T10:59:41.021Z,928.7
2019-02-03T11:00:41.270Z,928.6
2019-02-03T11:01:41.256Z,928.7
2019-02-03T11:02:41.228Z,928.7
2019-02-03T11:03:50.447Z,928.7
2019-02-03T11:04:53.398Z,928.7
2019-02-03T11:05:55.191Z,928.8
2019-02-03T11:06:56.210Z,928.7
2019-02-03T11:07:56.193Z,928.6
2019-02-03T11:08:56.892Z,928.8
2019-02-03T11:09:57.124Z,928.8
2019-02-03T11:10:57.099Z,928.8
2019-02-03T11:11:57.101Z,928.9
2019-02-03T11:12:57.092Z,928.8
2019-02-03T11:13:56.870Z,928.9
2019-02-03T11:14:56.819Z,928.9
2019-02-03T11:15:57.372Z,928.7
2019-02-03T11:17:01.169Z,928.7
2019-02-03T11:18:01.314Z,929
2019-02-03T11:19:01.285Z,928.9
2019-02-03T11:20:01.294Z,928.8
2019-02-03T11:21:01.328Z,929
2019-02-03T11:22:05.494Z,928.8
2019-02-03T11:23:05.548Z,929
2019-02-03T11:24:05.557Z,929
2019-02-03T11:25:06.353Z,928.3
2019-02-03T11:26:06.917Z,929.1
2019-02-03T11:27:06.976Z,928.9
2019-02-03T11:28:07.120Z,929.1
2019-02-03T11:29:07.110Z,929.2
2019-02-03T11:30:07.091Z,929.2
2019-02-03T11:31:07.133Z,929.1
2019-02-03T11:32:07.153Z,929.2
2019-02-03T11:33:10.953Z,929.1
2019-02-03T11:34:10.941Z,929.1
2019-02-03T11:35:10.959Z,929.1
2019-02-03T11:36:11.650Z,928.5
2019-02-03T11:37:11.629Z,929.2
2019-02-03T11:38:11.662Z,929.1
2019-02-03T11:39:11.645Z,929.1
2019-02-03T11:40:11.554Z,929.1
2019-02-03T11:41:12.604Z,929.3
2019-02-03T11:42:12.500Z,927.9
2019-02-03T11:43:12.494Z,929.2
2019-02-03T11:44:12.267Z,929.3
2019-02-03T11:45:12.226Z,929.4
2019-02-03T11:46:13.975Z,929.3
2019-02-03T11:47:13.946Z,929.4
2019-02-03T11:48:14.171Z,929.3
2019-02-03T11:49:14.505Z,929.4
2019-02-03T11:50:14.469Z,929.4
2019-02-03T11:51:14.440Z,929.4
2019-02-03T11:52:14.408Z,929.5
2019-02-03T11:53:14.390Z,929.5
2019-02-03T11:54:14.453Z,929.5
2019-02-03T11:55:14.435Z,929.4
2019-02-03T11:56:15.148Z,929.3
2019-02-03T11:57:15.060Z,929.5
2019-02-03T11:58:15.021Z,929.5
2019-02-03T11:59:14.989Z,929.4
2019-02-03T12:00:15.160Z,929.6
2019-02-03T12:01:17.549Z,929.5
2019-02-03T12:02:17.486Z,929.5
2019-02-03T12:03:17.441Z,929.4
2019-02-03T12:04:17.416Z,929.6
2019-02-03T12:05:20.157Z,929.6
2019-02-03T12:06:20.736Z,929.4
2019-02-03T12:07:20.890Z,929.5
2019-02-03T12:08:20.951Z,929.6
2019-02-03T12:09:20.932Z,929.6
2019-02-03T12:10:21.094Z,929.6
2019-02-03T12:11:21.043Z,929.6
2019-02-03T12:12:20.963Z,929.7
2019-02-03T12:13:20.888Z,929.5
2019-02-03T12:14:20.830Z,929.7
2019-02-03T12:15:22.337Z,929.5
2019-02-03T12:16:23.192Z,929.7
2019-02-03T12:17:24.180Z,929.7
2019-02-03T12:18:24.109Z,929.5
2019-02-03T12:19:24.049Z,929.8
2019-02-03T12:20:24.026Z,929.7
2019-02-03T12:21:24.004Z,929.9
2019-02-03T12:22:23.936Z,929.9
2019-02-03T12:23:24.916Z,929.9
2019-02-03T12:24:25.073Z,929
2019-02-03T12:25:25.416Z,929.9
2019-02-03T12:26:25.804Z,928.3
2019-02-03T12:27:25.800Z,929.9
2019-02-03T12:28:25.722Z,929.9
2019-02-03T12:29:29.048Z,930
2019-02-03T12:30:29.807Z,929.9
2019-02-03T12:31:29.967Z,930
2019-02-03T12:32:31.116Z,930.1
2019-02-03T12:33:31.403Z,930.1
2019-02-03T12:34:31.331Z,930.1
2019-02-03T12:35:31.299Z,929.9
2019-02-03T12:36:32.000Z,930.1
2019-02-03T12:37:31.947Z,930.1
2019-02-03T12:38:32.034Z,930
2019-02-03T12:39:32.014Z,930.2
2019-02-03T12:40:31.982Z,930.2
2019-02-03T12:41:33.476Z,930.2
2019-02-03T12:42:33.637Z,930.3
2019-02-03T12:43:33.816Z,930.3
2019-02-03T12:44:33.750Z,930.2
2019-02-03T12:45:33.695Z,930.2
2019-02-03T12:46:34.381Z,930.2
2019-02-03T12:47:34.314Z,930.2
2019-02-03T12:48:34.282Z,930.3
2019-02-03T12:49:35.645Z,930.3
2019-02-03T12:50:36.138Z,930.3
2019-02-03T12:51:36.139Z,930.4
2019-02-03T12:52:36.129Z,930.3
2019-02-03T12:53:36.058Z,930.4
2019-02-03T12:54:35.954Z,930.4
2019-02-03T12:55:35.930Z,930.4
2019-02-03T12:56:36.360Z,930.4
2019-02-03T12:57:37.768Z,930.4
2019-02-03T12:58:38.016Z,930.5
2019-02-03T12:59:37.949Z,930.5
2019-02-03T13:00:37.890Z,930.4
2019-02-03T13:01:37.850Z,930.6
2019-02-03T13:02:37.788Z,930.6